sensor_id;sensor_type;location;lat;lon;timestamp;temperature;humidity
1455;DHT22;721;48.168;12.818;2023-10-31T00:02:01;12.50;56.40
1455;DHT22;721;48.168;12.818;2023-10-31T00:04:27;12.50;56.90
1455;DHT22;721;48.168;12.818;2023-10-31T00:06:54;12.50;57.70
1455;DHT22;721;48.168;12.818;2023-10-31T00:09:21;12.40;58.60
1455;DHT22;721;48.168;12.818;2023-10-31T00:11:48;12.30;59.00
1455;DHT22;721;48.168;12.818;2023-10-31T00:14:16;12.30;59.60
1455;DHT22;721;48.168;12.818;2023-10-31T00:16:43;12.20;60.70
1455;DHT22;721;48.168;12.818;2023-10-31T00:19:09;12.10;61.70
1455;DHT22;721;48.168;12.818;2023-10-31T00:21:36;12.10;62.00
1455;DHT22;721;48.168;12.818;2023-10-31T00:24:04;12.10;62.10
1455;DHT22;721;48.168;12.818;2023-10-31T00:26:30;12.00;62.40
1455;DHT22;721;48.168;12.818;2023-10-31T00:28:57;12.00;63.40
1455;DHT22;721;48.168;12.818;2023-10-31T00:31:25;12.00;63.60
1455;DHT22;721;48.168;12.818;2023-10-31T00:33:52;11.90;63.50
1455;DHT22;721;48.168;12.818;2023-10-31T00:36:19;11.90;64.30
1455;DHT22;721;48.168;12.818;2023-10-31T00:38:46;11.90;64.30
1455;DHT22;721;48.168;12.818;2023-10-31T00:41:13;11.90;64.10
1455;DHT22;721;48.168;12.818;2023-10-31T00:43:40;11.90;63.20
1455;DHT22;721;48.168;12.818;2023-10-31T00:46:07;11.90;63.40
1455;DHT22;721;48.168;12.818;2023-10-31T00:48:35;11.90;62.90
1455;DHT22;721;48.168;12.818;2023-10-31T00:51:03;11.90;62.50
1455;DHT22;721;48.168;12.818;2023-10-31T00:53:30;11.80;61.60
1455;DHT22;721;48.168;12.818;2023-10-31T00:55:56;11.80;60.80
1455;DHT22;721;48.168;12.818;2023-10-31T00:58:23;11.80;61.70
1455;DHT22;721;48.168;12.818;2023-10-31T01:00:50;11.80;60.70
1455;DHT22;721;48.168;12.818;2023-10-31T01:03:17;11.90;59.60
1455;DHT22;721;48.168;12.818;2023-10-31T01:05:45;11.70;58.50
1455;DHT22;721;48.168;12.818;2023-10-31T01:08:11;11.60;58.10
1455;DHT22;721;48.168;12.818;2023-10-31T01:10:38;11.60;56.00
1455;DHT22;721;48.168;12.818;2023-10-31T01:13:05;11.50;54.10
1455;DHT22;721;48.168;12.818;2023-10-31T01:15:32;11.40;54.30
1455;DHT22;721;48.168;12.818;2023-10-31T01:17:59;11.40;55.90
1455;DHT22;721;48.168;12.818;2023-10-31T01:20:26;11.60;57.40
1455;DHT22;721;48.168;12.818;2023-10-31T01:22:54;11.30;55.70
1455;DHT22;721;48.168;12.818;2023-10-31T01:25:20;11.30;58.40
1455;DHT22;721;48.168;12.818;2023-10-31T01:27:47;11.30;59.60
1455;DHT22;721;48.168;12.818;2023-10-31T01:30:14;11.20;59.70
1455;DHT22;721;48.168;12.818;2023-10-31T01:32:41;11.10;60.40
1455;DHT22;721;48.168;12.818;2023-10-31T01:35:08;11.20;61.80
1455;DHT22;721;48.168;12.818;2023-10-31T01:37:35;11.10;60.10
1455;DHT22;721;48.168;12.818;2023-10-31T01:40:04;11.10;59.10
1455;DHT22;721;48.168;12.818;2023-10-31T01:42:32;11.10;58.80
1455;DHT22;721;48.168;12.818;2023-10-31T01:44:59;11.10;55.60
1455;DHT22;721;48.168;12.818;2023-10-31T01:47:26;11.00;55.40
1455;DHT22;721;48.168;12.818;2023-10-31T01:49:53;10.90;55.90
1455;DHT22;721;48.168;12.818;2023-10-31T01:52:20;10.90;54.40
1455;DHT22;721;48.168;12.818;2023-10-31T01:54:47;10.80;55.20
1455;DHT22;721;48.168;12.818;2023-10-31T01:57:15;10.80;54.50
1455;DHT22;721;48.168;12.818;2023-10-31T01:59:42;10.80;54.70
1455;DHT22;721;48.168;12.818;2023-10-31T02:02:08;10.80;53.80
1455;DHT22;721;48.168;12.818;2023-10-31T02:04:35;10.80;53.90
1455;DHT22;721;48.168;12.818;2023-10-31T02:07:02;10.80;53.20
1455;DHT22;721;48.168;12.818;2023-10-31T02:09:29;10.80;51.80
1455;DHT22;721;48.168;12.818;2023-10-31T02:11:56;10.70;51.80
1455;DHT22;721;48.168;12.818;2023-10-31T02:14:24;10.70;51.50
1455;DHT22;721;48.168;12.818;2023-10-31T02:16:51;10.70;49.70
1455;DHT22;721;48.168;12.818;2023-10-31T02:19:19;10.70;50.00
1455;DHT22;721;48.168;12.818;2023-10-31T02:21:48;10.60;50.40
1455;DHT22;721;48.168;12.818;2023-10-31T02:24:14;10.60;50.90
1455;DHT22;721;48.168;12.818;2023-10-31T02:26:41;10.60;52.00
1455;DHT22;721;48.168;12.818;2023-10-31T02:29:08;10.60;51.90
1455;DHT22;721;48.168;12.818;2023-10-31T02:31:35;11.10;53.00
1455;DHT22;721;48.168;12.818;2023-10-31T02:34:01;10.60;52.60
1455;DHT22;721;48.168;12.818;2023-10-31T02:36:28;10.60;52.70
1455;DHT22;721;48.168;12.818;2023-10-31T02:38:56;10.60;52.00
1455;DHT22;721;48.168;12.818;2023-10-31T02:41:23;10.70;52.90
1455;DHT22;721;48.168;12.818;2023-10-31T02:43:50;10.70;52.20
1455;DHT22;721;48.168;12.818;2023-10-31T02:46:17;10.70;52.30
1455;DHT22;721;48.168;12.818;2023-10-31T02:48:44;10.60;51.80
1455;DHT22;721;48.168;12.818;2023-10-31T02:51:11;10.60;53.30
1455;DHT22;721;48.168;12.818;2023-10-31T02:53:38;10.60;54.50
1455;DHT22;721;48.168;12.818;2023-10-31T02:56:07;10.60;54.30
1455;DHT22;721;48.168;12.818;2023-10-31T02:58:34;10.60;53.90
1455;DHT22;721;48.168;12.818;2023-10-31T03:01:01;10.60;53.70
1455;DHT22;721;48.168;12.818;2023-10-31T03:03:28;10.60;54.20
1455;DHT22;721;48.168;12.818;2023-10-31T03:05:55;10.70;54.00
1455;DHT22;721;48.168;12.818;2023-10-31T03:08:22;10.60;54.10
1455;DHT22;721;48.168;12.818;2023-10-31T03:10:49;10.50;54.10
1455;DHT22;721;48.168;12.818;2023-10-31T03:13:18;10.60;54.50
1455;DHT22;721;48.168;12.818;2023-10-31T03:15:45;10.60;52.80
1455;DHT22;721;48.168;12.818;2023-10-31T03:18:12;10.50;51.80
1455;DHT22;721;48.168;12.818;2023-10-31T03:20:40;10.60;52.20
1455;DHT22;721;48.168;12.818;2023-10-31T03:23:07;10.60;52.30
1455;DHT22;721;48.168;12.818;2023-10-31T03:25:34;10.50;50.90
1455;DHT22;721;48.168;12.818;2023-10-31T03:28:02;10.60;50.40
1455;DHT22;721;48.168;12.818;2023-10-31T03:30:30;10.50;48.20
1455;DHT22;721;48.168;12.818;2023-10-31T03:32:57;10.50;49.20
1455;DHT22;721;48.168;12.818;2023-10-31T03:35:23;10.50;49.00
1455;DHT22;721;48.168;12.818;2023-10-31T03:37:50;10.40;48.10
1455;DHT22;721;48.168;12.818;2023-10-31T03:40:17;10.40;49.30
1455;DHT22;721;48.168;12.818;2023-10-31T03:42:44;10.40;50.20
1455;DHT22;721;48.168;12.818;2023-10-31T03:45:10;10.40;49.30
1455;DHT22;721;48.168;12.818;2023-10-31T03:47:39;10.40;50.20
1455;DHT22;721;48.168;12.818;2023-10-31T03:50:06;10.40;50.20
1455;DHT22;721;48.168;12.818;2023-10-31T03:52:33;10.40;51.50
1455;DHT22;721;48.168;12.818;2023-10-31T03:55:00;10.40;51.40
1455;DHT22;721;48.168;12.818;2023-10-31T03:57:26;10.40;52.20
1455;DHT22;721;48.168;12.818;2023-10-31T03:59:53;10.30;51.70
1455;DHT22;721;48.168;12.818;2023-10-31T04:02:20;10.40;52.50
1455;DHT22;721;48.168;12.818;2023-10-31T04:04:48;10.40;52.40
1455;DHT22;721;48.168;12.818;2023-10-31T04:07:15;10.40;51.90
1455;DHT22;721;48.168;12.818;2023-10-31T04:09:42;10.40;51.20
1455;DHT22;721;48.168;12.818;2023-10-31T04:12:09;10.30;51.40
1455;DHT22;721;48.168;12.818;2023-10-31T04:14:35;10.40;52.10
1455;DHT22;721;48.168;12.818;2023-10-31T04:17:03;10.40;52.10
1455;DHT22;721;48.168;12.818;2023-10-31T04:19:30;10.30;51.60
1455;DHT22;721;48.168;12.818;2023-10-31T04:21:58;10.30;52.80
1455;DHT22;721;48.168;12.818;2023-10-31T04:24:25;10.30;51.90
1455;DHT22;721;48.168;12.818;2023-10-31T04:26:52;10.80;52.50
1455;DHT22;721;48.168;12.818;2023-10-31T04:29:18;10.30;52.20
1455;DHT22;721;48.168;12.818;2023-10-31T04:31:45;10.20;51.60
1455;DHT22;721;48.168;12.818;2023-10-31T04:34:12;10.20;51.90
1455;DHT22;721;48.168;12.818;2023-10-31T04:36:39;10.20;51.80
1455;DHT22;721;48.168;12.818;2023-10-31T04:39:07;10.20;52.70
1455;DHT22;721;48.168;12.818;2023-10-31T04:41:35;10.20;52.30
1455;DHT22;721;48.168;12.818;2023-10-31T04:44:01;10.20;51.30
1455;DHT22;721;48.168;12.818;2023-10-31T04:46:29;10.30;51.90
1455;DHT22;721;48.168;12.818;2023-10-31T04:48:55;10.20;50.00
1455;DHT22;721;48.168;12.818;2023-10-31T04:51:22;10.20;50.40
1455;DHT22;721;48.168;12.818;2023-10-31T04:53:49;10.20;49.50
1455;DHT22;721;48.168;12.818;2023-10-31T04:56:18;10.30;49.60
1455;DHT22;721;48.168;12.818;2023-10-31T04:58:45;10.20;48.00
1455;DHT22;721;48.168;12.818;2023-10-31T05:01:13;10.20;48.20
1455;DHT22;721;48.168;12.818;2023-10-31T05:03:40;10.20;47.50
1455;DHT22;721;48.168;12.818;2023-10-31T05:06:07;10.30;47.50
1455;DHT22;721;48.168;12.818;2023-10-31T05:08:34;10.30;47.40
1455;DHT22;721;48.168;12.818;2023-10-31T05:11:01;10.30;46.90
1455;DHT22;721;48.168;12.818;2023-10-31T05:13:29;10.30;45.90
1455;DHT22;721;48.168;12.818;2023-10-31T05:15:56;10.30;46.10
1455;DHT22;721;48.168;12.818;2023-10-31T05:18:23;10.30;44.40
1455;DHT22;721;48.168;12.818;2023-10-31T05:20:50;10.30;44.90
1455;DHT22;721;48.168;12.818;2023-10-31T05:23:17;10.30;45.40
1455;DHT22;721;48.168;12.818;2023-10-31T05:25:43;10.30;45.40
1455;DHT22;721;48.168;12.818;2023-10-31T05:28:10;10.20;45.60
1455;DHT22;721;48.168;12.818;2023-10-31T05:30:39;10.30;45.40
1455;DHT22;721;48.168;12.818;2023-10-31T05:33:05;10.30;44.40
1455;DHT22;721;48.168;12.818;2023-10-31T05:35:33;10.30;43.70
1455;DHT22;721;48.168;12.818;2023-10-31T05:38:00;10.30;42.70
1455;DHT22;721;48.168;12.818;2023-10-31T05:40:27;10.30;41.90
1455;DHT22;721;48.168;12.818;2023-10-31T05:42:54;10.30;40.60
1455;DHT22;721;48.168;12.818;2023-10-31T05:45:22;10.30;40.60
1455;DHT22;721;48.168;12.818;2023-10-31T05:47:50;10.30;40.30
1455;DHT22;721;48.168;12.818;2023-10-31T05:50:17;10.30;39.30
1455;DHT22;721;48.168;12.818;2023-10-31T05:52:44;10.40;41.40
1455;DHT22;721;48.168;12.818;2023-10-31T05:55:11;10.40;37.10
1455;DHT22;721;48.168;12.818;2023-10-31T05:57:38;10.40;35.90
1455;DHT22;721;48.168;12.818;2023-10-31T06:00:06;10.40;36.20
1455;DHT22;721;48.168;12.818;2023-10-31T06:02:33;10.40;35.90
1455;DHT22;721;48.168;12.818;2023-10-31T06:05:02;10.40;34.90
1455;DHT22;721;48.168;12.818;2023-10-31T06:07:28;10.40;34.60
1455;DHT22;721;48.168;12.818;2023-10-31T06:09:55;10.40;33.70
1455;DHT22;721;48.168;12.818;2023-10-31T06:12:22;10.40;33.60
1455;DHT22;721;48.168;12.818;2023-10-31T06:14:49;10.40;34.10
1455;DHT22;721;48.168;12.818;2023-10-31T06:17:16;10.50;33.60
1455;DHT22;721;48.168;12.818;2023-10-31T06:19:43;10.50;32.40
1455;DHT22;721;48.168;12.818;2023-10-31T06:22:12;10.50;33.40
1455;DHT22;721;48.168;12.818;2023-10-31T06:24:39;10.50;33.30
1455;DHT22;721;48.168;12.818;2023-10-31T06:27:06;10.50;33.50
1455;DHT22;721;48.168;12.818;2023-10-31T06:29:33;10.50;33.50
1455;DHT22;721;48.168;12.818;2023-10-31T06:32:00;10.50;34.30
1455;DHT22;721;48.168;12.818;2023-10-31T06:34:27;10.50;33.80
1455;DHT22;721;48.168;12.818;2023-10-31T06:36:54;10.60;35.00
1455;DHT22;721;48.168;12.818;2023-10-31T06:39:22;10.60;33.90
1455;DHT22;721;48.168;12.818;2023-10-31T06:41:49;10.60;34.00
1455;DHT22;721;48.168;12.818;2023-10-31T06:44:16;10.60;34.80
1455;DHT22;721;48.168;12.818;2023-10-31T06:46:43;10.70;34.00
1455;DHT22;721;48.168;12.818;2023-10-31T06:49:10;10.60;33.80
1455;DHT22;721;48.168;12.818;2023-10-31T06:51:36;10.60;34.80
1455;DHT22;721;48.168;12.818;2023-10-31T06:54:03;10.60;36.00
1455;DHT22;721;48.168;12.818;2023-10-31T06:56:31;10.50;35.30
1455;DHT22;721;48.168;12.818;2023-10-31T06:58:58;10.60;36.70
1455;DHT22;721;48.168;12.818;2023-10-31T07:01:25;10.50;37.70
1455;DHT22;721;48.168;12.818;2023-10-31T07:03:52;10.50;36.00
1455;DHT22;721;48.168;12.818;2023-10-31T07:06:19;10.50;37.70
1455;DHT22;721;48.168;12.818;2023-10-31T07:08:46;10.60;37.60
1455;DHT22;721;48.168;12.818;2023-10-31T07:11:13;10.40;39.60
1455;DHT22;721;48.168;12.818;2023-10-31T07:13:41;10.40;40.30
1455;DHT22;721;48.168;12.818;2023-10-31T07:16:09;10.30;40.60
1455;DHT22;721;48.168;12.818;2023-10-31T07:18:36;10.30;42.50
1455;DHT22;721;48.168;12.818;2023-10-31T07:21:04;10.30;43.70
1455;DHT22;721;48.168;12.818;2023-10-31T07:23:31;10.30;43.80
1455;DHT22;721;48.168;12.818;2023-10-31T07:25:57;10.30;45.00
1455;DHT22;721;48.168;12.818;2023-10-31T07:28:24;10.30;45.30
1455;DHT22;721;48.168;12.818;2023-10-31T07:30:52;10.40;46.20
1455;DHT22;721;48.168;12.818;2023-10-31T07:33:19;10.40;45.70
1455;DHT22;721;48.168;12.818;2023-10-31T07:35:46;10.40;45.90
1455;DHT22;721;48.168;12.818;2023-10-31T07:38:12;10.40;45.50
1455;DHT22;721;48.168;12.818;2023-10-31T07:40:40;10.50;45.60
1455;DHT22;721;48.168;12.818;2023-10-31T07:43:07;10.40;45.20
1455;DHT22;721;48.168;12.818;2023-10-31T07:45:34;10.40;45.50
1455;DHT22;721;48.168;12.818;2023-10-31T07:48:02;10.40;46.00
1455;DHT22;721;48.168;12.818;2023-10-31T07:50:29;10.40;46.00
1455;DHT22;721;48.168;12.818;2023-10-31T07:52:56;10.40;45.40
1455;DHT22;721;48.168;12.818;2023-10-31T07:55:23;10.50;45.60
1455;DHT22;721;48.168;12.818;2023-10-31T07:57:50;10.30;44.80
1455;DHT22;721;48.168;12.818;2023-10-31T08:00:17;10.40;46.10
1455;DHT22;721;48.168;12.818;2023-10-31T08:02:43;10.40;46.00
1455;DHT22;721;48.168;12.818;2023-10-31T08:05:11;10.50;46.50
1455;DHT22;721;48.168;12.818;2023-10-31T08:07:38;10.40;45.90
1455;DHT22;721;48.168;12.818;2023-10-31T08:10:06;10.50;47.90
1455;DHT22;721;48.168;12.818;2023-10-31T08:12:33;10.50;47.80
1455;DHT22;721;48.168;12.818;2023-10-31T08:15:00;10.50;48.30
1455;DHT22;721;48.168;12.818;2023-10-31T08:17:27;10.40;47.40
1455;DHT22;721;48.168;12.818;2023-10-31T08:19:54;10.50;48.40
1455;DHT22;721;48.168;12.818;2023-10-31T08:22:23;10.50;48.00
1455;DHT22;721;48.168;12.818;2023-10-31T08:24:49;10.40;48.50
1455;DHT22;721;48.168;12.818;2023-10-31T08:27:19;10.50;49.00
1455;DHT22;721;48.168;12.818;2023-10-31T08:29:47;10.50;49.60
1455;DHT22;721;48.168;12.818;2023-10-31T08:32:14;10.50;49.50
1455;DHT22;721;48.168;12.818;2023-10-31T08:34:41;10.40;47.90
1455;DHT22;721;48.168;12.818;2023-10-31T08:37:08;10.50;51.70
1455;DHT22;721;48.168;12.818;2023-10-31T08:39:36;10.50;51.20
1455;DHT22;721;48.168;12.818;2023-10-31T08:42:03;10.50;51.00
1455;DHT22;721;48.168;12.818;2023-10-31T08:44:31;10.60;50.90
1455;DHT22;721;48.168;12.818;2023-10-31T08:46:58;10.60;48.80
1455;DHT22;721;48.168;12.818;2023-10-31T08:49:25;10.60;47.50
1455;DHT22;721;48.168;12.818;2023-10-31T08:51:52;10.50;48.00
1455;DHT22;721;48.168;12.818;2023-10-31T08:54:19;10.50;49.90
1455;DHT22;721;48.168;12.818;2023-10-31T08:56:47;10.50;48.90
1455;DHT22;721;48.168;12.818;2023-10-31T08:59:14;10.50;49.50
1455;DHT22;721;48.168;12.818;2023-10-31T09:01:40;10.60;48.40
1455;DHT22;721;48.168;12.818;2023-10-31T09:04:07;10.50;46.80
1455;DHT22;721;48.168;12.818;2023-10-31T09:06:34;10.50;46.60
1455;DHT22;721;48.168;12.818;2023-10-31T09:09:03;10.40;46.40
1455;DHT22;721;48.168;12.818;2023-10-31T09:11:30;10.50;46.20
1455;DHT22;721;48.168;12.818;2023-10-31T09:13:58;10.40;47.80
1455;DHT22;721;48.168;12.818;2023-10-31T09:16:25;10.50;48.80
1455;DHT22;721;48.168;12.818;2023-10-31T09:18:52;10.40;45.50
1455;DHT22;721;48.168;12.818;2023-10-31T09:21:19;10.40;45.70
1455;DHT22;721;48.168;12.818;2023-10-31T09:23:45;10.30;43.70
1455;DHT22;721;48.168;12.818;2023-10-31T09:26:12;10.30;43.90
1455;DHT22;721;48.168;12.818;2023-10-31T09:28:39;10.20;43.70
1455;DHT22;721;48.168;12.818;2023-10-31T09:31:16;10.20;43.80
1455;DHT22;721;48.168;12.818;2023-10-31T09:33:43;10.10;43.70
1455;DHT22;721;48.168;12.818;2023-10-31T09:36:10;10.00;45.10
1455;DHT22;721;48.168;12.818;2023-10-31T09:38:38;10.10;46.80
1455;DHT22;721;48.168;12.818;2023-10-31T09:41:08;10.00;47.20
1455;DHT22;721;48.168;12.818;2023-10-31T09:43:40;10.00;47.30
1455;DHT22;721;48.168;12.818;2023-10-31T09:46:07;10.20;48.80
1455;DHT22;721;48.168;12.818;2023-10-31T09:48:37;9.90;50.20
1455;DHT22;721;48.168;12.818;2023-10-31T09:51:06;9.90;52.10
1455;DHT22;721;48.168;12.818;2023-10-31T09:53:34;9.90;50.80
1455;DHT22;721;48.168;12.818;2023-10-31T09:56:04;9.90;49.80
1455;DHT22;721;48.168;12.818;2023-10-31T09:58:32;9.90;51.10
1455;DHT22;721;48.168;12.818;2023-10-31T10:00:59;9.80;51.40
1455;DHT22;721;48.168;12.818;2023-10-31T10:03:26;9.80;51.50
1455;DHT22;721;48.168;12.818;2023-10-31T10:05:56;9.80;52.10
1455;DHT22;721;48.168;12.818;2023-10-31T10:08:23;9.80;52.60
1455;DHT22;721;48.168;12.818;2023-10-31T10:10:50;9.70;53.50
1455;DHT22;721;48.168;12.818;2023-10-31T10:13:18;9.70;53.30
1455;DHT22;721;48.168;12.818;2023-10-31T10:15:45;9.80;54.70
1455;DHT22;721;48.168;12.818;2023-10-31T10:18:25;9.80;53.90
1455;DHT22;721;48.168;12.818;2023-10-31T10:20:57;9.80;52.70
1455;DHT22;721;48.168;12.818;2023-10-31T10:23:25;9.80;53.10
1455;DHT22;721;48.168;12.818;2023-10-31T10:25:53;9.80;51.90
1455;DHT22;721;48.168;12.818;2023-10-31T10:28:20;9.70;51.30
1455;DHT22;721;48.168;12.818;2023-10-31T10:30:46;9.80;52.70
1455;DHT22;721;48.168;12.818;2023-10-31T10:33:16;9.80;52.50
1455;DHT22;721;48.168;12.818;2023-10-31T10:35:45;9.80;52.00
1455;DHT22;721;48.168;12.818;2023-10-31T10:38:15;9.70;50.00
1455;DHT22;721;48.168;12.818;2023-10-31T10:40:43;9.80;51.80
1455;DHT22;721;48.168;12.818;2023-10-31T10:43:13;9.80;51.60
1455;DHT22;721;48.168;12.818;2023-10-31T10:45:42;9.70;51.00
1455;DHT22;721;48.168;12.818;2023-10-31T10:48:12;9.80;51.50
1455;DHT22;721;48.168;12.818;2023-10-31T10:50:42;9.80;51.80
1455;DHT22;721;48.168;12.818;2023-10-31T10:53:16;9.80;52.80
1455;DHT22;721;48.168;12.818;2023-10-31T10:55:47;9.90;52.90
1455;DHT22;721;48.168;12.818;2023-10-31T10:58:24;9.90;52.60
1455;DHT22;721;48.168;12.818;2023-10-31T11:00:53;9.90;52.30
1455;DHT22;721;48.168;12.818;2023-10-31T11:03:22;9.90;52.90
1455;DHT22;721;48.168;12.818;2023-10-31T11:05:50;9.90;52.40
1455;DHT22;721;48.168;12.818;2023-10-31T11:08:20;9.90;50.80
1455;DHT22;721;48.168;12.818;2023-10-31T11:10:48;10.00;49.90
1455;DHT22;721;48.168;12.818;2023-10-31T11:13:15;10.00;50.00
1455;DHT22;721;48.168;12.818;2023-10-31T11:15:42;10.10;50.10
1455;DHT22;721;48.168;12.818;2023-10-31T11:18:10;10.10;49.00
1455;DHT22;721;48.168;12.818;2023-10-31T11:20:38;10.10;47.30
1455;DHT22;721;48.168;12.818;2023-10-31T11:23:06;10.10;46.90
1455;DHT22;721;48.168;12.818;2023-10-31T11:25:42;10.10;46.30
1455;DHT22;721;48.168;12.818;2023-10-31T11:28:13;10.20;47.60
1455;DHT22;721;48.168;12.818;2023-10-31T11:30:41;10.30;45.40
1455;DHT22;721;48.168;12.818;2023-10-31T11:33:11;10.30;43.80
1455;DHT22;721;48.168;12.818;2023-10-31T11:35:40;10.30;42.40
1455;DHT22;721;48.168;12.818;2023-10-31T11:38:08;10.30;41.60
1455;DHT22;721;48.168;12.818;2023-10-31T11:40:57;10.30;42.80
1455;DHT22;721;48.168;12.818;2023-10-31T11:43:25;10.30;39.70
1455;DHT22;721;48.168;12.818;2023-10-31T11:45:52;10.40;42.40
1455;DHT22;721;48.168;12.818;2023-10-31T11:48:46;10.40;42.30
1455;DHT22;721;48.168;12.818;2023-10-31T11:51:14;10.50;41.60
1455;DHT22;721;48.168;12.818;2023-10-31T11:53:40;10.50;39.80
1455;DHT22;721;48.168;12.818;2023-10-31T11:56:11;10.50;39.90
1455;DHT22;721;48.168;12.818;2023-10-31T11:58:38;10.60;40.20
1455;DHT22;721;48.168;12.818;2023-10-31T12:01:06;10.70;41.70
1455;DHT22;721;48.168;12.818;2023-10-31T12:03:38;10.80;41.60
1455;DHT22;721;48.168;12.818;2023-10-31T12:06:05;10.90;43.70
1455;DHT22;721;48.168;12.818;2023-10-31T12:08:34;11.00;44.20
1455;DHT22;721;48.168;12.818;2023-10-31T12:11:06;11.00;39.70
1455;DHT22;721;48.168;12.818;2023-10-31T12:13:35;10.90;36.80
1455;DHT22;721;48.168;12.818;2023-10-31T12:16:03;10.90;37.50
1455;DHT22;721;48.168;12.818;2023-10-31T12:18:31;11.00;36.40
1455;DHT22;721;48.168;12.818;2023-10-31T12:20:58;11.00;37.70
1455;DHT22;721;48.168;12.818;2023-10-31T12:23:25;11.00;37.60
1455;DHT22;721;48.168;12.818;2023-10-31T12:25:52;11.00;36.60
1455;DHT22;721;48.168;12.818;2023-10-31T12:28:20;11.00;37.10
1455;DHT22;721;48.168;12.818;2023-10-31T12:30:49;11.20;38.20
1455;DHT22;721;48.168;12.818;2023-10-31T12:33:17;11.00;36.40
1455;DHT22;721;48.168;12.818;2023-10-31T12:35:44;11.10;36.50
1455;DHT22;721;48.168;12.818;2023-10-31T12:38:12;11.10;35.90
1455;DHT22;721;48.168;12.818;2023-10-31T12:40:40;11.10;33.20
1455;DHT22;721;48.168;12.818;2023-10-31T12:43:08;11.10;31.50
1455;DHT22;721;48.168;12.818;2023-10-31T12:45:35;11.10;29.40
1455;DHT22;721;48.168;12.818;2023-10-31T12:48:04;11.10;28.80
1455;DHT22;721;48.168;12.818;2023-10-31T12:50:32;11.10;30.00
1455;DHT22;721;48.168;12.818;2023-10-31T12:52:59;11.10;30.60
1455;DHT22;721;48.168;12.818;2023-10-31T12:55:27;11.00;28.60
1455;DHT22;721;48.168;12.818;2023-10-31T12:57:54;11.00;28.30
1455;DHT22;721;48.168;12.818;2023-10-31T13:00:22;11.00;27.40
1455;DHT22;721;48.168;12.818;2023-10-31T13:02:59;11.00;28.40
1455;DHT22;721;48.168;12.818;2023-10-31T13:05:27;11.10;28.20
1455;DHT22;721;48.168;12.818;2023-10-31T13:07:55;11.10;26.60
1455;DHT22;721;48.168;12.818;2023-10-31T13:10:23;11.20;27.50
1455;DHT22;721;48.168;12.818;2023-10-31T13:12:50;11.20;27.20
1455;DHT22;721;48.168;12.818;2023-10-31T13:15:19;11.20;26.10
1455;DHT22;721;48.168;12.818;2023-10-31T13:17:47;11.20;26.70
1455;DHT22;721;48.168;12.818;2023-10-31T13:20:15;11.10;26.30
1455;DHT22;721;48.168;12.818;2023-10-31T13:22:43;11.10;25.70
1455;DHT22;721;48.168;12.818;2023-10-31T13:25:11;11.20;27.30
1455;DHT22;721;48.168;12.818;2023-10-31T13:27:39;11.20;26.40
1455;DHT22;721;48.168;12.818;2023-10-31T13:30:08;11.20;25.70
1455;DHT22;721;48.168;12.818;2023-10-31T13:32:36;11.20;25.30
1455;DHT22;721;48.168;12.818;2023-10-31T13:35:03;11.20;26.70
1455;DHT22;721;48.168;12.818;2023-10-31T13:37:31;11.30;26.20
1455;DHT22;721;48.168;12.818;2023-10-31T13:39:59;11.40;24.80
1455;DHT22;721;48.168;12.818;2023-10-31T13:42:25;11.40;24.50
1455;DHT22;721;48.168;12.818;2023-10-31T13:44:53;11.40;25.70
1455;DHT22;721;48.168;12.818;2023-10-31T13:47:20;11.50;25.50
1455;DHT22;721;48.168;12.818;2023-10-31T13:49:47;11.50;25.40
1455;DHT22;721;48.168;12.818;2023-10-31T13:52:14;11.50;23.80
1455;DHT22;721;48.168;12.818;2023-10-31T13:54:41;11.50;24.40
1455;DHT22;721;48.168;12.818;2023-10-31T13:57:10;11.60;24.40
1455;DHT22;721;48.168;12.818;2023-10-31T13:59:37;11.50;24.00
1455;DHT22;721;48.168;12.818;2023-10-31T14:02:04;11.60;23.30
1455;DHT22;721;48.168;12.818;2023-10-31T14:04:30;11.60;22.50
1455;DHT22;721;48.168;12.818;2023-10-31T14:06:57;11.60;23.80
1455;DHT22;721;48.168;12.818;2023-10-31T14:09:24;11.60;23.00
1455;DHT22;721;48.168;12.818;2023-10-31T14:11:51;11.70;22.80
1455;DHT22;721;48.168;12.818;2023-10-31T14:14:19;11.60;21.20
1455;DHT22;721;48.168;12.818;2023-10-31T14:16:47;11.60;21.20
1455;DHT22;721;48.168;12.818;2023-10-31T14:19:14;11.60;21.40
1455;DHT22;721;48.168;12.818;2023-10-31T14:21:42;11.60;22.10
1455;DHT22;721;48.168;12.818;2023-10-31T14:24:09;11.60;21.40
1455;DHT22;721;48.168;12.818;2023-10-31T14:26:36;11.60;21.20
1455;DHT22;721;48.168;12.818;2023-10-31T14:29:04;11.50;21.10
1455;DHT22;721;48.168;12.818;2023-10-31T14:31:38;11.60;22.10
1455;DHT22;721;48.168;12.818;2023-10-31T14:34:05;11.50;21.80
1455;DHT22;721;48.168;12.818;2023-10-31T14:36:32;11.60;21.80
1455;DHT22;721;48.168;12.818;2023-10-31T14:38:58;11.60;21.60
1455;DHT22;721;48.168;12.818;2023-10-31T14:41:25;11.60;22.10
1455;DHT22;721;48.168;12.818;2023-10-31T14:43:52;11.50;22.30
1455;DHT22;721;48.168;12.818;2023-10-31T14:46:19;11.50;22.40
1455;DHT22;721;48.168;12.818;2023-10-31T14:48:47;11.50;22.40
1455;DHT22;721;48.168;12.818;2023-10-31T14:51:15;11.60;23.00
1455;DHT22;721;48.168;12.818;2023-10-31T14:53:41;11.70;23.00
1455;DHT22;721;48.168;12.818;2023-10-31T14:56:08;11.70;22.90
1455;DHT22;721;48.168;12.818;2023-10-31T14:58:35;11.70;22.50
1455;DHT22;721;48.168;12.818;2023-10-31T15:01:02;11.70;23.00
1455;DHT22;721;48.168;12.818;2023-10-31T15:03:30;11.80;23.60
1455;DHT22;721;48.168;12.818;2023-10-31T15:05:58;11.80;23.00
1455;DHT22;721;48.168;12.818;2023-10-31T15:08:25;11.80;23.00
1455;DHT22;721;48.168;12.818;2023-10-31T15:10:52;11.70;22.50
1455;DHT22;721;48.168;12.818;2023-10-31T15:13:20;11.60;25.20
1455;DHT22;721;48.168;12.818;2023-10-31T15:15:48;11.50;24.20
1455;DHT22;721;48.168;12.818;2023-10-31T15:18:15;11.40;24.40
1455;DHT22;721;48.168;12.818;2023-10-31T15:20:43;11.20;26.20
1455;DHT22;721;48.168;12.818;2023-10-31T15:23:11;11.10;26.70
1455;DHT22;721;48.168;12.818;2023-10-31T15:25:40;11.00;28.30
1455;DHT22;721;48.168;12.818;2023-10-31T15:28:07;11.00;29.80
1455;DHT22;721;48.168;12.818;2023-10-31T15:30:33;11.00;30.80
1455;DHT22;721;48.168;12.818;2023-10-31T15:33:00;11.00;31.50
1455;DHT22;721;48.168;12.818;2023-10-31T15:35:27;11.00;32.30
1455;DHT22;721;48.168;12.818;2023-10-31T15:37:54;10.90;32.10
1455;DHT22;721;48.168;12.818;2023-10-31T15:40:22;10.90;32.40
1455;DHT22;721;48.168;12.818;2023-10-31T15:42:49;10.90;32.40
1455;DHT22;721;48.168;12.818;2023-10-31T15:45:15;10.80;32.10
1455;DHT22;721;48.168;12.818;2023-10-31T15:47:42;10.80;32.70
1455;DHT22;721;48.168;12.818;2023-10-31T15:50:09;10.90;33.30
1455;DHT22;721;48.168;12.818;2023-10-31T15:52:36;10.90;32.00
1455;DHT22;721;48.168;12.818;2023-10-31T15:55:03;10.80;32.50
1455;DHT22;721;48.168;12.818;2023-10-31T15:57:31;10.80;32.70
1455;DHT22;721;48.168;12.818;2023-10-31T15:59:58;10.70;31.90
1455;DHT22;721;48.168;12.818;2023-10-31T16:02:25;10.80;32.40
1455;DHT22;721;48.168;12.818;2023-10-31T16:04:52;10.80;32.00